Time;durP1;ratioP1;P1;durP2;ratioP2;P2;SDS_P1;SDS_P2;PMS_P1;PMS_P2;Temp;Humidity;BMP_temperature;BMP_pressure;BME280_temperature;BME280_humidity;BME280_pressure;Samples;Min_cycle;Max_cycle;Signal;HPM_P1;HPM_P2
2022/01/15 00:00:06;;;;;;;2.35;0.80;;;;;;;8.23;44.37;100960.94;1681589;83;21554;-51
2022/01/15 00:02:34;;;;;;;0.70;0.47;;;;;;;8.22;44.29;100955.31;1677727;85;21026;-52
2022/01/15 00:05:00;;;;;;;1.05;0.50;;;;;;;8.21;44.28;100947.13;1693732;83;21054;-53
2022/01/15 00:07:27;;;;;;;1.10;0.45;;;;;;;8.21;44.03;100960.09;1683082;83;21089;-52
2022/01/15 00:09:54;;;;;;;1.45;0.45;;;;;;;8.17;43.90;100966.18;1704269;83;21034;-51
2022/01/15 00:12:21;;;;;;;0.70;0.50;;;;;;;8.14;43.92;100972.67;1696336;83;20994;-51
2022/01/15 00:14:47;;;;;;;1.40;0.50;;;;;;;8.12;43.85;100975.71;1698016;83;21038;-51
2022/01/15 00:17:21;;;;;;;0.72;0.40;;;;;;;8.09;43.70;100978.34;1678545;83;21029;-51
2022/01/15 00:19:44;;;;;;;1.25;0.47;;;;;;;8.07;43.77;100980.09;1688305;83;21062;-51
2022/01/15 00:22:17;;;;;;;1.10;0.57;;;;;;;8.05;43.79;100984.86;1695816;83;20994;-51
2022/01/15 00:24:44;;;;;;;0.78;0.40;;;;;;;8.03;43.82;100999.13;1691971;83;21062;-51
2022/01/15 00:27:11;;;;;;;0.68;0.50;;;;;;;8.01;43.86;101000.88;1694304;83;21065;-51
2022/01/15 00:29:37;;;;;;;0.30;0.25;;;;;;;8.00;43.87;101012.09;1703820;83;21034;-51
2022/01/15 00:32:06;;;;;;;1.40;0.68;;;;;;;7.98;43.87;101013.84;1697681;83;20998;-51
2022/01/15 00:34:34;;;;;;;1.02;0.47;;;;;;;7.95;43.84;101014.30;1683109;83;21046;-51
2022/01/15 00:37:02;;;;;;;2.08;0.65;;;;;;;7.91;43.80;101021.21;1694581;83;21065;-51
2022/01/15 00:39:28;;;;;;;1.55;0.60;;;;;;;7.89;43.87;101034.61;1679694;83;21097;-51
2022/01/15 00:41:54;;;;;;;3.20;0.40;;;;;;;7.86;43.94;101029.47;1683056;83;21009;-51
2022/01/15 00:44:21;;;;;;;0.53;0.42;;;;;;;7.85;43.90;101031.62;1678594;83;21049;-52
2022/01/15 00:46:47;;;;;;;0.72;0.42;;;;;;;7.82;43.90;101047.20;1704702;83;21065;-51
2022/01/15 00:49:15;;;;;;;1.12;0.50;;;;;;;7.79;43.92;101051.09;1707549;83;21026;-51
2022/01/15 00:51:42;;;;;;;0.90;0.50;;;;;;;7.78;43.88;101045.50;1683242;83;21554;-51
2022/01/15 00:54:09;;;;;;;1.05;0.40;;;;;;;7.76;43.84;101051.13;1688082;83;21050;-51
2022/01/15 00:56:35;;;;;;;1.35;0.62;;;;;;;7.74;43.83;101057.17;1675192;84;21661;-51
2022/01/15 00:59:02;;;;;;;0.88;0.53;;;;;;;7.72;43.82;101058.91;1690913;83;21541;-51
2022/01/15 01:01:28;;;;;;;1.22;0.50;;;;;;;7.69;43.84;101055.89;1694841;83;21085;-50
2022/01/15 01:03:55;;;;;;;2.15;0.57;;;;;;;7.67;43.80;101055.05;1685087;83;20983;-52
2022/01/15 01:06:22;;;;;;;1.02;0.40;;;;;;;7.66;43.88;101059.81;1701539;83;21050;-51
2022/01/15 01:08:48;;;;;;;1.40;0.50;;;;;;;7.67;43.92;101073.17;1690739;83;21027;-51
2022/01/15 01:11:18;;;;;;;1.05;0.40;;;;;;;7.66;44.00;101059.81;1690749;83;21010;-52
2022/01/15 01:22:31;;;;;;;0.70;0.40;;;;;;;7.67;43.78;101062.81;1682957;83;21066;-52
2022/01/15 01:24:12;;;;;;;0.60;0.40;;;;;;;7.66;43.73;101064.13;1695090;83;21049;-51
2022/01/15 01:31:59;;;;;;;1.05;0.50;;;;;;;7.61;43.56;101056.38;1663483;85;21610;-51
2022/01/15 01:34:23;;;;;;;1.07;0.60;;;;;;;7.59;43.41;101060.70;1672130;84;21083;-51
2022/01/15 01:39:21;;;;;;;0.88;0.57;;;;;;;7.55;43.09;101066.76;1658350;86;21575;-51
2022/01/15 01:42:04;;;;;;;2.17;0.60;;;;;;;7.54;43.09;101067.65;1666284;84;21076;-51
2022/01/15 01:44:18;;;;;;;2.15;0.57;;;;;;;7.53;43.15;101069.80;1654956;84;21727;-51
2022/01/15 01:46:51;;;;;;;0.55;0.50;;;;;;;7.54;43.00;101074.55;1670281;84;21086;-51
2022/01/15 01:49:13;;;;;;;1.12;0.50;;;;;;;7.52;43.06;101070.68;1661158;85;21646;-52
2022/01/15 01:51:40;;;;;;;1.72;0.55;;;;;;;7.53;43.06;101077.56;1669278;84;21556;-51
2022/01/15 01:54:09;;;;;;;1.07;0.50;;;;;;;7.54;42.99;101076.71;1668479;84;21047;-53
2022/01/15 01:56:36;;;;;;;1.02;0.82;;;;;;;7.54;42.87;101070.23;1668544;84;21061;-51
2022/01/15 01:59:03;;;;;;;0.55;0.40;;;;;;;7.54;42.75;101076.71;1663693;84;21522;-53
2022/01/15 02:01:30;;;;;;;2.40;0.60;;;;;;;7.54;42.74;101079.73;1653655;84;21573;-52
2022/01/15 02:03:58;;;;;;;0.65;0.30;;;;;;;7.52;42.76;101084.92;1678095;84;21056;-50
2022/01/15 02:06:25;;;;;;;1.42;0.75;;;;;;;7.49;42.76;101077.15;1654838;85;21010;-51
2022/01/15 02:08:54;;;;;;;2.95;0.80;;;;;;;7.47;42.72;101085.36;1677384;84;21058;-51
2022/01/15 02:11:19;;;;;;;1.25;0.65;;;;;;;7.46;42.72;101088.80;1690273;83;21014;-51
2022/01/15 02:13:47;;;;;;;2.60;0.80;;;;;;;7.44;42.80;101075.00;1694066;83;21126;-51
2022/01/15 02:16:14;;;;;;;1.02;0.60;;;;;;;7.44;42.75;101089.23;1680614;85;21007;-51
2022/01/15 02:18:41;;;;;;;0.93;0.62;;;;;;;7.43;42.68;101084.94;1683584;83;21084;-51
2022/01/15 02:23:44;;;;;;;1.02;0.68;;;;;;;7.39;42.66;101075.47;1676999;83;21094;-51
2022/01/15 02:26:09;;;;;;;1.22;0.60;;;;;;;7.38;42.57;101072.44;1699951;83;21071;-52
2022/01/15 02:28:39;;;;;;;1.00;0.60;;;;;;;7.36;42.56;101065.11;1689000;83;21077;-51
2022/01/15 02:31:08;;;;;;;1.10;0.65;;;;;;;7.36;42.51;101079.34;1699282;83;21026;-51
2022/01/15 02:33:35;;;;;;;1.17;0.60;;;;;;;7.34;42.32;101077.19;1701426;83;21051;-51
2022/01/15 02:36:08;;;;;;;1.50;0.80;;;;;;;7.32;42.34;101079.80;1677091;83;21055;-51
2022/01/15 02:38:36;;;;;;;1.22;0.60;;;;;;;7.32;42.42;101081.52;1620852;86;21549;-51
2022/01/15 02:41:05;;;;;;;1.52;0.68;;;;;;;7.30;42.45;101088.42;1622110;85;21061;-51
2022/01/15 02:43:33;;;;;;;1.40;0.68;;;;;;;7.28;42.44;101070.32;1628128;85;21102;-51
2022/01/15 02:46:19;;;;;;;3.10;0.70;;;;;;;7.28;42.45;101081.10;1627703;86;21102;-51
2022/01/15 02:48:31;;;;;;;4.67;0.95;;;;;;;7.26;42.51;101097.07;1544319;91;21068;-51
2022/01/15 02:50:57;;;;;;;0.78;0.57;;;;;;;7.26;42.51;101099.66;1535403;91;21161;-52
2022/01/15 02:53:23;;;;;;;1.52;0.85;;;;;;;7.25;42.57;101083.26;1539535;91;21085;-51
2022/01/15 02:55:53;;;;;;;1.72;0.80;;;;;;;7.23;42.46;101100.98;1536139;91;21133;-51
2022/01/15 02:58:21;;;;;;;1.67;0.78;;;;;;;7.22;42.58;101113.47;1545776;91;21596;-51
2022/01/15 03:00:47;;;;;;;1.17;0.60;;;;;;;7.22;42.62;101113.47;1545987;91;21071;-52
2022/01/15 03:03:13;;;;;;;1.17;0.80;;;;;;;7.21;42.74;101122.13;1532602;91;21628;-51
2022/01/15 03:05:40;;;;;;;1.92;0.82;;;;;;;7.19;42.77;101113.04;1541049;91;21126;-51
2022/01/15 03:08:09;;;;;;;1.42;0.80;;;;;;;7.19;42.85;101119.97;1539991;91;21061;-51
2022/01/15 03:10:35;;;;;;;1.80;0.70;;;;;;;7.21;42.89;101126.00;1539990;91;21064;-51
2022/01/15 03:13:09;;;;;;;2.45;0.90;;;;;;;7.19;42.90;101129.86;1544093;92;21589;-51
2022/01/15 03:15:31;;;;;;;1.40;0.75;;;;;;;7.17;42.90;101133.34;1537014;91;21126;-51
2022/01/15 03:17:57;;;;;;;2.12;0.68;;;;;;;7.14;42.97;101131.61;1545293;91;21084;-51
2022/01/15 03:20:23;;;;;;;1.57;0.78;;;;;;;7.16;42.96;101138.08;1544952;91;21169;-51
2022/01/15 03:22:50;;;;;;;0.98;0.70;;;;;;;7.14;43.03;101129.03;1538460;91;21184;-52
2022/01/15 03:25:16;;;;;;;1.90;0.88;;;;;;;7.12;43.07;101135.94;1534773;91;21153;-51
2022/01/15 03:27:43;;;;;;;1.17;0.65;;;;;;;7.11;43.03;101130.77;1538974;91;21093;-51
2022/01/15 03:30:12;;;;;;;2.27;0.72;;;;;;;7.10;42.99;101137.66;1525772;91;21081;-51
2022/01/15 03:32:43;;;;;;;1.82;0.70;;;;;;;7.11;43.04;101148.88;1537842;91;21085;-51
2022/01/15 03:35:12;;;;;;;1.70;0.90;;;;;;;7.10;43.05;101156.20;1556678;90;21060;-51
2022/01/15 03:37:39;;;;;;;1.70;0.90;;;;;;;7.08;43.11;101148.87;1589275;89;21078;-51
2022/01/15 03:40:07;;;;;;;2.55;0.80;;;;;;;7.07;43.11;101152.30;1585858;89;21065;-52
2022/01/15 03:42:33;;;;;;;2.15;0.78;;;;;;;7.05;43.22;101160.08;1591913;89;21546;-51
2022/01/15 03:45:00;;;;;;;1.98;1.02;;;;;;;7.04;43.23;101157.50;1630257;83;21514;-51
2022/01/15 03:47:27;;;;;;;2.67;0.90;;;;;;;7.04;43.27;101165.27;1684355;83;21518;-51
2022/01/15 03:49:53;;;;;;;2.00;0.75;;;;;;;7.03;43.29;101153.17;1680801;83;21483;-51
2022/01/15 03:52:20;;;;;;;2.37;0.90;;;;;;;7.04;43.33;101170.44;1686951;83;21486;-52
2022/01/15 03:54:46;;;;;;;1.75;0.75;;;;;;;7.03;43.31;101176.46;1680352;83;21499;-51
2022/01/15 03:57:12;;;;;;;1.40;0.90;;;;;;;7.02;43.37;101191.15;1686810;83;21007;-51
2022/01/15 03:59:40;;;;;;;1.70;0.82;;;;;;;7.02;43.39;101177.34;1683902;83;21036;-51
2022/01/15 04:02:09;;;;;;;1.57;0.80;;;;;;;7.02;43.35;101177.34;1688339;83;21577;-51
2022/01/15 04:04:35;;;;;;;2.70;1.10;;;;;;;7.01;43.39;101187.24;1689559;83;21571;-51
2022/01/15 04:07:02;;;;;;;1.42;0.80;;;;;;;7.00;43.42;101192.87;1685641;83;20991;-51
2022/01/15 04:09:28;;;;;;;3.10;1.00;;;;;;;6.99;43.51;101195.44;1670325;83;21053;-51
2022/01/15 04:11:55;;;;;;;2.98;0.70;;;;;;;6.99;43.45;101199.32;1687295;83;21047;-51
2022/01/15 04:14:21;;;;;;;1.37;0.78;;;;;;;6.99;43.45;101200.61;1706802;83;21046;-51
2022/01/15 04:16:48;;;;;;;2.30;0.75;;;;;;;6.99;43.41;101196.73;1681963;83;21171;-51
2022/01/15 04:19:15;;;;;;;2.20;0.95;;;;;;;6.97;43.45;101195.87;1679362;83;21035;-51
2022/01/15 04:21:42;;;;;;;1.92;0.98;;;;;;;6.97;43.42;101198.45;1691600;83;21113;-51
2022/01/15 04:24:09;;;;;;;1.35;0.80;;;;;;;6.96;43.35;101200.63;1684473;83;21049;-51
2022/01/15 04:26:35;;;;;;;1.62;0.70;;;;;;;6.95;43.36;101196.30;1690182;83;20994;-51
2022/01/15 04:29:04;;;;;;;5.55;1.07;;;;;;;6.93;43.42;101199.32;1680439;83;21578;-51
2022/01/15 04:34:02;;;;;;;2.58;0.80;;;;;;;6.90;43.47;101205.38;1579996;90;21076;-51
2022/01/15 04:36:29;;;;;;;3.00;0.85;;;;;;;6.90;43.43;101203.22;1562938;91;21168;-52
2022/01/15 04:38:55;;;;;;;1.35;0.80;;;;;;;6.87;43.39;101208.38;1579195;90;21154;-51
2022/01/15 04:41:22;;;;;;;2.00;0.90;;;;;;;6.85;43.34;101199.75;1579288;90;21073;-51
2022/01/15 04:43:48;;;;;;;1.98;0.98;;;;;;;6.85;43.31;101213.98;1571787;90;21055;-51
2022/01/15 04:46:15;;;;;;;1.80;0.78;;;;;;;6.84;43.34;101214.86;1574666;90;21571;-52
2022/01/15 04:48:42;;;;;;;1.42;0.68;;;;;;;6.83;43.31;101215.28;1576382;90;21600;-51
2022/01/15 04:51:08;;;;;;;3.70;0.90;;;;;;;6.82;43.31;101217.88;1572215;90;21553;-51
2022/01/15 04:53:35;;;;;;;1.72;0.90;;;;;;;6.83;43.27;101219.58;1572857;89;21156;-51
2022/01/15 04:56:02;;;;;;;1.22;0.70;;;;;;;6.84;43.31;101228.62;1579787;90;21523;-51
2022/01/15 04:58:29;;;;;;;2.30;1.10;;;;;;;6.84;43.35;101225.20;1579839;90;21079;-51
2022/01/15 05:00:55;;;;;;;3.02;1.00;;;;;;;6.83;43.35;101235.97;1577075;90;21153;-52
2022/01/15 05:03:22;;;;;;;1.30;0.95;;;;;;;6.83;43.32;101232.52;1574394;90;21558;-51
2022/01/15 05:05:48;;;;;;;1.75;0.90;;;;;;;6.82;43.29;101238.56;1574234;89;21069;-51
2022/01/15 05:08:15;;;;;;;2.55;0.90;;;;;;;6.81;43.26;101243.30;1582395;90;21041;-51
2022/01/15 05:10:46;;;;;;;2.90;1.27;;;;;;;6.78;43.32;101242.84;1570014;90;21083;-51
2022/01/15 05:13:09;;;;;;;1.85;0.98;;;;;;;6.76;43.38;101254.08;1572943;90;21115;-51
2022/01/15 05:15:37;;;;;;;3.40;1.37;;;;;;;6.74;43.51;101248.04;1580577;90;21097;-51
2022/01/15 05:18:04;;;;;;;2.60;0.98;;;;;;;6.74;43.43;101251.92;1573974;90;21041;-51
2022/01/15 05:20:32;;;;;;;2.92;1.40;;;;;;;6.73;43.59;101249.76;1574755;89;21117;-51
2022/01/15 05:22:58;;;;;;;2.33;1.00;;;;;;;6.74;43.57;101254.05;1572081;91;21135;-51
2022/01/15 05:25:25;;;;;;;2.58;1.00;;;;;;;6.73;43.55;101256.64;1578751;90;21071;-51
2022/01/15 05:27:51;;;;;;;1.72;0.80;;;;;;;6.72;43.63;101252.35;1576248;90;21032;-51
2022/01/15 05:30:19;;;;;;;2.20;0.95;;;;;;;6.73;43.71;101256.64;1572025;90;21063;-51
2022/01/15 05:32:45;;;;;;;1.55;1.02;;;;;;;6.73;43.76;101264.41;1577721;90;21160;-51
2022/01/15 05:35:12;;;;;;;2.20;0.88;;;;;;;6.73;43.82;101261.81;1579906;90;21559;-51
2022/01/15 05:37:38;;;;;;;1.77;1.20;;;;;;;6.73;43.91;101259.23;1638351;83;21582;-51
2022/01/15 05:40:06;;;;;;;3.42;1.17;;;;;;;6.71;43.94;101250.19;1691988;83;20979;-51
2022/01/15 05:42:34;;;;;;;2.67;0.85;;;;;;;6.72;44.02;101254.94;1689610;82;21200;-51
2022/01/15 05:45:01;;;;;;;3.10;1.07;;;;;;;6.73;44.00;101256.64;1701749;82;20979;-51
2022/01/15 05:47:28;;;;;;;4.72;1.02;;;;;;;6.71;44.04;101254.48;1705498;83;21074;-51
2022/01/15 05:49:54;;;;;;;2.85;1.30;;;;;;;6.71;44.06;101248.89;1701002;83;21046;-51
2022/01/15 05:52:20;;;;;;;3.33;1.12;;;;;;;6.71;44.09;101249.31;1703189;83;21010;-51
2022/01/15 05:54:47;;;;;;;2.33;0.85;;;;;;;6.69;44.18;101262.25;1691775;83;21101;-51
2022/01/15 05:57:14;;;;;;;2.25;1.20;;;;;;;6.70;44.12;101267.00;1683343;83;21042;-51
2022/01/15 05:59:40;;;;;;;2.30;1.37;;;;;;;6.69;44.19;101273.02;1684401;83;21085;-51
2022/01/15 06:02:07;;;;;;;4.30;1.25;;;;;;;6.69;44.28;101267.84;1685286;83;21010;-50
2022/01/15 06:04:34;;;;;;;2.52;1.22;;;;;;;6.69;44.31;101276.89;1685183;83;21059;-51
2022/01/15 06:07:00;;;;;;;1.72;1.10;;;;;;;6.70;44.31;101274.76;1685135;83;21035;-51
2022/01/15 06:09:27;;;;;;;4.10;1.12;;;;;;;6.69;44.34;101279.06;1680207;83;21014;-53
2022/01/15 06:11:56;;;;;;;1.45;1.05;;;;;;;6.70;44.50;101283.81;1685505;83;21605;-51
2022/01/15 06:14:23;;;;;;;2.33;1.10;;;;;;;6.70;44.51;101292.41;1674782;84;21559;-51
2022/01/15 06:16:50;;;;;;;3.22;1.20;;;;;;;6.71;44.46;101287.69;1702132;83;21512;-51
2022/01/15 06:19:16;;;;;;;2.47;1.35;;;;;;;6.73;44.52;101288.97;1675223;83;21535;-51
2022/01/15 06:21:42;;;;;;;2.65;1.45;;;;;;;6.76;44.59;101296.75;1698853;83;21034;-51
2022/01/15 06:24:09;;;;;;;2.20;1.15;;;;;;;6.79;44.56;101294.16;1680798;83;21018;-51
2022/01/15 06:26:35;;;;;;;3.27;1.50;;;;;;;6.88;44.50;101298.06;1687917;83;21080;-51
2022/01/15 06:29:01;;;;;;;3.17;1.45;;;;;;;6.98;44.31;101298.09;1680682;83;21018;-51
2022/01/15 06:31:30;;;;;;;2.85;1.50;;;;;;;7.07;44.09;101306.27;1684739;83;21036;-51
2022/01/15 06:33:58;;;;;;;2.92;1.30;;;;;;;7.14;44.05;101296.37;1679194;83;21077;-51
2022/01/15 06:36:25;;;;;;;2.47;1.30;;;;;;;7.24;43.82;101295.51;1680898;83;21066;-51
2022/01/15 06:38:52;;;;;;;4.85;1.42;;;;;;;7.32;43.72;101304.14;1685690;83;21668;-51
2022/01/15 06:41:18;;;;;;;4.00;1.47;;;;;;;7.37;43.57;101298.55;1692242;83;21510;-51
2022/01/15 06:43:44;;;;;;;1.90;1.10;;;;;;;7.40;43.50;101293.34;1704261;83;21041;-51
2022/01/15 06:46:11;;;;;;;3.80;1.45;;;;;;;7.43;43.47;101300.26;1685069;83;21149;-51
2022/01/15 06:48:38;;;;;;;3.00;1.30;;;;;;;7.43;43.30;101304.14;1685302;83;21053;-51
2022/01/15 06:51:04;;;;;;;3.15;1.72;;;;;;;7.40;43.26;101307.16;1677112;84;20994;-51
2022/01/15 06:53:31;;;;;;;3.05;1.40;;;;;;;7.37;43.36;101308.90;1685655;83;21069;-51
2022/01/15 06:55:57;;;;;;;3.37;1.22;;;;;;;7.34;43.56;101310.17;1679385;83;20986;-51
2022/01/15 06:58:24;;;;;;;2.92;1.50;;;;;;;7.32;43.60;101312.77;1686342;83;21429;-51
2022/01/15 07:00:50;;;;;;;2.85;1.15;;;;;;;7.33;43.69;101320.12;1708985;83;21569;-51
2022/01/15 07:03:17;;;;;;;3.33;1.35;;;;;;;7.33;43.64;101321.41;1693034;83;21066;-51
2022/01/15 07:05:44;;;;;;;4.58;1.17;;;;;;;7.33;43.57;101324.00;1696144;83;21057;-51
2022/01/15 07:08:11;;;;;;;5.35;1.37;;;;;;;7.33;43.67;101327.88;1705231;83;21105;-51
2022/01/15 07:10:39;;;;;;;4.47;1.52;;;;;;;7.34;43.59;101339.52;1686872;83;21537;-51
2022/01/15 07:13:06;;;;;;;3.87;1.27;;;;;;;7.36;43.65;101339.52;1703018;83;21015;-51
2022/01/15 07:15:34;;;;;;;3.15;1.50;;;;;;;7.40;43.52;101341.24;1683379;83;21073;-51
2022/01/15 07:18:00;;;;;;;2.65;1.37;;;;;;;7.41;43.46;101335.22;1682351;83;21180;-51
2022/01/15 07:20:27;;;;;;;3.27;1.42;;;;;;;7.42;43.34;101344.70;1681521;83;21079;-51
2022/01/15 07:22:54;;;;;;;3.90;1.50;;;;;;;7.43;43.35;101349.45;1691958;83;21066;-51
2022/01/15 07:25:21;;;;;;;4.08;2.00;;;;;;;7.43;43.20;101350.32;1684430;83;21031;-51
2022/01/15 07:27:47;;;;;;;3.02;1.47;;;;;;;7.44;42.98;101344.27;1704788;82;20999;-51
2022/01/15 07:30:15;;;;;;;6.10;1.50;;;;;;;7.46;43.06;101342.53;1702196;83;21108;-51
2022/01/15 07:32:43;;;;;;;2.67;1.45;;;;;;;7.47;42.84;101353.34;1681079;84;21041;-51
2022/01/15 07:35:10;;;;;;;4.10;1.85;;;;;;;7.48;42.74;101352.46;1684610;83;21049;-51
2022/01/15 07:37:37;;;;;;;3.83;1.77;;;;;;;7.51;42.85;101361.97;1700914;83;21378;-51
2022/01/15 07:40:05;;;;;;;3.52;1.60;;;;;;;7.54;42.84;101386.58;1691811;83;21517;-51
2022/01/15 07:42:37;;;;;;;3.30;1.60;;;;;;;7.56;42.69;101374.08;1677991;83;21070;-51
2022/01/15 07:45:05;;;;;;;2.52;1.30;;;;;;;7.57;42.79;101373.20;1668889;84;21034;-51
2022/01/15 07:47:33;;;;;;;2.77;1.45;;;;;;;7.54;43.08;101380.98;1684457;83;21090;-51
2022/01/15 07:50:03;;;;;;;3.45;1.70;;;;;;;7.53;42.81;101370.17;1663165;85;21105;-51
2022/01/15 07:52:30;;;;;;;4.00;1.60;;;;;;;7.53;42.75;101383.55;1703425;83;21037;-51
2022/01/15 07:54:58;;;;;;;3.20;1.67;;;;;;;7.55;42.51;101383.11;1693317;83;21010;-52
2022/01/15 07:57:25;;;;;;;4.00;1.57;;;;;;;7.57;42.56;101384.85;1680719;83;21496;-51
2022/01/15 07:59:51;;;;;;;2.58;1.55;;;;;;;7.58;42.36;101385.30;1680535;83;21522;-53
2022/01/15 08:02:18;;;;;;;4.75;1.98;;;;;;;7.62;42.31;101373.20;1681675;83;21486;-51
2022/01/15 08:04:44;;;;;;;3.70;1.62;;;;;;;7.63;42.49;101382.68;1683214;83;21045;-51
2022/01/15 08:07:12;;;;;;;4.70;1.80;;;;;;;7.67;42.45;101408.59;1692810;83;21042;-51
2022/01/15 08:09:39;;;;;;;5.72;2.10;;;;;;;7.67;42.22;101395.64;1694144;83;21018;-51
2022/01/15 08:12:07;;;;;;;4.90;1.65;;;;;;;7.69;42.39;101395.20;1679790;83;21058;-51
2022/01/15 08:14:33;;;;;;;4.75;1.80;;;;;;;7.70;42.28;101380.11;1694800;83;21041;-51
2022/01/15 08:16:59;;;;;;;4.03;1.45;;;;;;;7.71;42.13;101394.78;1696000;83;21059;-51
2022/01/15 08:19:26;;;;;;;3.70;1.95;;;;;;;7.75;42.16;101406.02;1688362;83;21131;-53
2022/01/15 08:21:52;;;;;;;3.80;1.70;;;;;;;7.76;41.98;101382.70;1691897;83;21019;-51
2022/01/15 08:24:19;;;;;;;6.03;1.90;;;;;;;7.78;41.92;101401.70;1678022;83;21046;-52
2022/01/15 08:26:45;;;;;;;3.17;1.52;;;;;;;7.81;41.91;101398.25;1693842;83;21027;-51
2022/01/15 08:29:12;;;;;;;5.35;2.50;;;;;;;7.81;41.81;101406.86;1697303;83;21104;-51
2022/01/15 08:31:39;;;;;;;3.67;1.72;;;;;;;7.80;41.61;101406.45;1679477;83;21051;-51
2022/01/15 08:34:05;;;;;;;3.80;2.12;;;;;;;7.83;41.68;101420.68;1691527;83;21296;-51
2022/01/15 08:36:36;;;;;;;4.45;1.40;;;;;;;7.87;41.83;101393.91;1691756;83;21069;-51
2022/01/15 08:39:01;;;;;;;6.58;1.90;;;;;;;7.91;41.75;101417.66;1681848;83;21594;-51
2022/01/15 08:41:28;;;;;;;3.33;1.40;;;;;;;7.96;41.55;101408.58;1674206;83;21752;-51
2022/01/15 08:43:54;;;;;;;2.92;1.50;;;;;;;8.00;41.67;101419.38;1683089;83;21565;-51
2022/01/15 08:46:21;;;;;;;7.28;1.42;;;;;;;8.04;41.45;101417.22;1694529;83;21502;-51
2022/01/15 08:48:50;;;;;;;5.87;1.45;;;;;;;8.08;41.30;101417.64;1685325;83;21505;-51
2022/01/15 08:51:16;;;;;;;3.12;1.40;;;;;;;8.11;41.00;101408.16;1696237;83;21081;-51
2022/01/15 08:53:43;;;;;;;3.02;1.50;;;;;;;8.15;41.21;101418.95;1692998;83;21093;-51
2022/01/15 08:56:09;;;;;;;4.92;1.42;;;;;;;8.17;41.06;101419.81;1681964;83;21077;-51
2022/01/15 08:58:37;;;;;;;5.95;1.87;;;;;;;8.19;41.05;101415.48;1698901;83;21068;-51
2022/01/15 09:01:04;;;;;;;3.80;1.70;;;;;;;8.21;41.19;101425.42;1682986;83;21527;-51
2022/01/15 09:03:35;;;;;;;2.33;1.40;;;;;;;8.22;40.93;101416.76;1693497;83;21054;-51
2022/01/15 09:06:00;;;;;;;2.85;1.55;;;;;;;8.25;40.76;101419.82;1689573;83;21082;-51
2022/01/15 09:08:28;;;;;;;3.33;1.30;;;;;;;8.29;40.44;101405.11;1683973;83;21113;-50
2022/01/15 09:10:54;;;;;;;4.42;1.45;;;;;;;8.30;40.32;101418.09;1695940;83;21072;-51
2022/01/15 09:13:21;;;;;;;3.90;1.30;;;;;;;8.30;40.73;101410.31;1695350;83;21049;-51
2022/01/15 09:18:19;;;;;;;3.85;1.52;;;;;;;8.33;40.02;101424.98;1680488;85;21615;-51
2022/01/15 09:20:46;;;;;;;3.65;1.50;;;;;;;8.34;40.17;101418.95;1672961;84;21035;-52
2022/01/15 09:23:13;;;;;;;2.92;1.10;;;;;;;8.35;40.28;101419.36;1654797;86;21137;-51
2022/01/15 09:25:39;;;;;;;4.28;1.10;;;;;;;8.37;40.20;101418.92;1667974;85;21096;-51
2022/01/15 09:30:35;;;;;;;2.77;1.20;;;;;;;8.42;40.25;101414.59;1607541;87;21630;-51
2022/01/15 09:33:03;;;;;;;2.33;1.40;;;;;;;8.41;39.72;101427.99;1618495;87;21009;-51
2022/01/15 09:35:31;;;;;;;3.90;1.47;;;;;;;8.40;40.25;101440.55;1587719;89;21587;-51
2022/01/15 09:37:57;;;;;;;2.65;1.45;;;;;;;8.40;39.96;101431.47;1588041;88;21122;-51
2022/01/15 09:40:25;;;;;;;2.92;1.42;;;;;;;8.42;40.30;101424.97;1589664;89;21082;-51
2022/01/15 09:42:52;;;;;;;3.42;1.42;;;;;;;8.43;40.52;101412.00;1567170;89;21100;-51
2022/01/15 09:45:21;;;;;;;5.03;1.60;;;;;;;8.46;40.37;101424.09;1543040;91;21062;-51
2022/01/15 09:47:59;;;;;;;3.50;1.95;;;;;;;8.44;40.23;101429.72;1586055;89;21578;-51
2022/01/15 09:50:28;;;;;;;3.55;1.67;;;;;;;8.43;40.46;101424.13;1596167;87;21115;-53
2022/01/15 09:52:54;;;;;;;3.22;1.32;;;;;;;8.42;40.36;101439.23;1587011;89;21102;-51
2022/01/15 09:55:21;;;;;;;3.65;1.45;;;;;;;8.40;40.17;101426.71;1579743;89;21171;-50
2022/01/15 09:57:49;;;;;;;4.58;1.60;;;;;;;8.41;40.58;101442.72;1583636;89;21148;-52
2022/01/15 10:00:18;;;;;;;4.28;1.98;;;;;;;8.44;41.06;101419.34;1576983;89;21104;-51
2022/01/15 10:02:49;;;;;;;3.92;1.70;;;;;;;8.43;40.69;101430.15;1572542;89;21120;-53
2022/01/15 10:05:17;;;;;;;3.25;1.62;;;;;;;8.43;40.91;101447.47;1541083;91;21063;-52
2022/01/15 10:08:00;;;;;;;3.85;2.02;;;;;;;8.42;40.87;101432.75;1578248;87;21152;-52
2022/01/15 10:10:30;;;;;;;4.10;1.50;;;;;;;8.40;40.87;101439.67;1650074;85;21054;-52
2022/01/15 10:13:16;;;;;;;1.95;1.32;;;;;;;8.41;40.90;101429.29;1649392;86;21022;-52
2022/01/15 10:16:02;;;;;;;2.70;1.55;;;;;;;8.46;40.62;101434.47;1644691;86;21058;-52
2022/01/15 10:18:31;;;;;;;3.55;1.42;;;;;;;8.47;40.20;101455.67;1554077;91;21629;-52
2022/01/15 10:21:25;;;;;;;3.72;1.77;;;;;;;8.48;40.24;101430.14;1556850;90;21127;-52
2022/01/15 10:24:00;;;;;;;3.95;1.95;;;;;;;8.50;40.04;101429.70;1562394;89;21221;-52
2022/01/15 10:26:31;;;;;;;3.40;1.90;;;;;;;8.51;40.19;101425.80;1560492;90;21556;-52
2022/01/15 10:29:01;;;;;;;3.90;2.00;;;;;;;8.53;40.49;101429.25;1558466;90;21543;-53
2022/01/15 10:31:34;;;;;;;3.17;1.32;;;;;;;8.54;40.36;101431.00;1525608;94;21119;-52
2022/01/15 10:34:05;;;;;;;4.25;1.72;;;;;;;8.55;40.27;101429.27;1511845;94;21058;-53
2022/01/15 10:36:32;;;;;;;3.98;1.57;;;;;;;8.54;40.49;101421.92;1505035;94;21031;-51
2022/01/15 10:39:18;;;;;;;4.20;1.80;;;;;;;8.54;40.37;101422.34;1519577;94;21675;-54
2022/01/15 10:41:45;;;;;;;4.67;1.82;;;;;;;8.54;39.92;101418.45;1469353;97;21158;-52
2022/01/15 10:44:33;;;;;;;3.22;1.75;;;;;;;8.52;40.01;101416.30;1469984;97;21117;-52
2022/01/15 10:47:04;;;;;;;4.05;1.72;;;;;;;8.53;40.50;101424.52;1467842;97;21130;-52
2022/01/15 10:49:31;;;;;;;3.87;1.85;;;;;;;8.52;40.36;101417.17;1470010;97;21090;-52
2022/01/15 10:52:08;;;;;;;3.05;1.87;;;;;;;8.53;40.55;101423.23;1470929;97;21630;-52
2022/01/15 10:55:00;;;;;;;4.33;2.00;;;;;;;8.51;40.26;101423.21;1471606;96;21110;-52
2022/01/15 10:57:37;;;;;;;4.40;1.70;;;;;;;8.48;40.55;101422.36;1479644;95;21269;-53
2022/01/15 11:00:19;;;;;;;5.28;2.45;;;;;;;8.46;40.39;101421.50;1416130;100;21181;-52
2022/01/15 11:02:59;;;;;;;7.33;1.90;;;;;;;8.47;40.40;101444.00;1409687;99;21118;-52
2022/01/15 11:05:35;;;;;;;6.08;2.25;;;;;;;8.47;40.63;101423.25;1406195;101;21146;-52
2022/01/15 11:08:15;;;;;;;5.58;2.08;;;;;;;8.45;40.98;101419.80;1403280;100;21638;-52
2022/01/15 11:10:50;;;;;;;4.30;2.00;;;;;;;8.45;41.05;101414.61;1411790;99;21294;-52
2022/01/15 11:13:24;;;;;;;4.20;1.98;;;;;;;8.48;40.96;101417.17;1409083;99;21302;-52
2022/01/15 11:15:57;;;;;;;3.90;2.10;;;;;;;8.48;40.88;101414.58;1372253;103;21219;-52
2022/01/15 11:18:27;;;;;;;4.92;2.10;;;;;;;8.49;40.87;101420.22;1390325;102;21118;-53
2022/01/15 11:20:56;;;;;;;4.28;1.60;;;;;;;8.51;40.78;101418.48;1391830;102;21124;-51
2022/01/15 11:23:25;;;;;;;4.60;1.60;;;;;;;8.51;40.22;101419.77;1391106;102;21159;-52
2022/01/15 11:25:53;;;;;;;3.83;1.50;;;;;;;8.51;40.78;101415.42;1378779;103;21502;-52
2022/01/15 11:28:22;;;;;;;2.80;1.60;;;;;;;8.53;40.52;101414.98;1402445;99;21176;-52
2022/01/15 11:30:51;;;;;;;4.85;1.92;;;;;;;8.54;40.78;101424.52;1432826;97;21644;-52
2022/01/15 11:33:21;;;;;;;4.70;1.82;;;;;;;8.52;40.99;101421.48;1490789;95;21115;-52
2022/01/15 11:35:48;;;;;;;4.58;1.90;;;;;;;8.49;41.21;101422.81;1458834;96;21680;-53
2022/01/15 11:38:47;;;;;;;5.70;1.57;;;;;;;8.50;40.98;101444.84;1545961;91;21016;-51
2022/01/15 11:41:34;;;;;;;3.67;1.80;;;;;;;8.50;40.84;101425.39;1556827;91;21617;-51
2022/01/15 11:44:06;;;;;;;4.20;1.55;;;;;;;8.52;40.87;101429.27;1572748;91;21587;-52
2022/01/15 11:46:49;;;;;;;3.50;1.67;;;;;;;8.53;40.78;101421.47;1475507;96;21172;-52
2022/01/15 11:49:37;;;;;;;3.42;1.90;;;;;;;8.52;40.96;101451.31;1478064;97;21120;-51
2022/01/15 11:52:13;;;;;;;4.12;1.80;;;;;;;8.51;40.96;101435.34;1469443;97;21108;-52
2022/01/15 11:55:07;;;;;;;5.33;2.20;;;;;;;8.47;40.77;101444.00;1467373;97;21163;-52
2022/01/15 11:57:36;;;;;;;3.77;2.40;;;;;;;8.44;40.90;101451.77;1470261;96;21589;-52
2022/01/15 12:00:26;;;;;;;5.17;2.35;;;;;;;8.42;41.08;101448.31;1468185;97;21092;-52
2022/01/15 12:03:08;;;;;;;3.05;1.95;;;;;;;8.42;41.04;101454.80;1467361;97;21064;-51
2022/01/15 12:05:37;;;;;;;5.03;2.17;;;;;;;8.42;40.60;101467.77;1466706;96;21057;-53